createdAt,value
2022-10-15T00:15:03.312Z,98077.38
2022-10-15T00:35:05.746Z,98077.25
2022-10-15T00:55:08.184Z,98055.91
2022-10-15T01:15:10.683Z,98046.97
2022-10-15T01:35:13.121Z,98023.56
2022-10-15T01:55:15.761Z,98007.22
2022-10-15T02:15:18.181Z,97998.31
2022-10-15T02:35:20.843Z,97992.56
2022-10-15T02:55:23.492Z,97971.31
2022-10-15T03:15:25.934Z,97945.66
2022-10-15T03:35:28.434Z,97940.84
2022-10-15T03:55:31.133Z,97914.31
2022-10-15T04:15:33.561Z,97910.97
2022-10-15T04:35:36.279Z,97906.31
2022-10-15T04:55:38.909Z,97894.16
2022-10-15T05:15:41.357Z,97880.97
2022-10-15T05:35:44.207Z,97889.69
2022-10-15T05:55:46.731Z,97881.41
2022-10-15T06:15:49.168Z,97889.47
2022-10-15T06:35:51.962Z,97908.34
2022-10-15T06:55:54.443Z,97901.59
2022-10-15T07:15:57.222Z,97909.84
2022-10-15T07:35:59.942Z,97915.97
2022-10-15T07:56:02.759Z,97927.97
2022-10-15T08:16:05.207Z,97926.09
2022-10-15T08:36:08.402Z,97926.25
2022-10-15T08:56:11.709Z,97918.25
2022-10-15T09:16:14.114Z,97941.97
2022-10-15T09:36:16.703Z,97952.31
2022-10-15T09:56:19.390Z,97948.84
2022-10-15T10:16:22.317Z,97946.59
2022-10-15T10:36:24.789Z,97942.91
2022-10-15T10:56:27.453Z,97963.91
2022-10-15T11:16:29.864Z,97960.22
2022-10-15T11:36:32.287Z,97960.50
2022-10-15T11:56:37.997Z,97946.62
2022-10-15T12:16:41.498Z,97942.91
2022-10-15T12:36:45.795Z,97944.50
2022-10-15T12:56:48.232Z,97932.25
2022-10-15T13:16:51.979Z,97930.22
2022-10-15T13:36:54.414Z,97932.44
2022-10-15T13:56:58.810Z,97927.69
2022-10-15T14:17:01.322Z,97931.25
2022-10-15T14:37:03.719Z,97927.81
2022-10-15T14:57:06.252Z,97936.50
2022-10-15T15:17:08.698Z,97936.47
2022-10-15T15:37:11.126Z,97947.75
2022-10-15T15:57:13.862Z,97949.59
2022-10-15T16:17:16.493Z,97946.44
2022-10-15T16:37:18.901Z,97972.72
2022-10-15T16:57:21.316Z,97996.91
2022-10-15T17:17:23.816Z,98009.78
2022-10-15T17:37:26.344Z,98037.94
2022-10-15T17:57:29.050Z,98047.50
2022-10-15T18:17:31.623Z,98056.94
2022-10-15T18:37:34.069Z,98069.12
2022-10-15T18:57:36.725Z,98094.84
2022-10-15T19:17:39.134Z,98114.31
2022-10-15T19:37:41.633Z,98121.16
2022-10-15T19:57:44.122Z,98128.47
2022-10-15T20:17:46.581Z,98136.22
2022-10-15T20:37:49.005Z,98157.66
2022-10-15T20:57:51.449Z,98180.81
2022-10-15T21:17:54.038Z,98182.94
2022-10-15T21:37:56.671Z,98195.13
2022-10-15T21:57:59.110Z,98203.59
2022-10-15T22:18:01.530Z,98221.41
2022-10-15T22:38:03.920Z,98222.78
2022-10-15T22:58:06.360Z,98232.66
2022-10-15T23:18:08.752Z,98237.94
2022-10-15T23:38:11.158Z,98249.19
2022-10-15T23:58:13.584Z,98258.88
